CheckWX is a tool to help pilots better visualize weather data.  It is not intended as a substitute for an official pre-flight weather briefing.

22:13:31 UTC

KTEB METAR
Teterboro Airport
Teterboro, New Jersey, USA
Current

23 mins ago

KTEB 212151Z 15006KT 10SM CLR 11/02 A3009 RMK AO2 SLP188 T01110017
Observed
Nov-21 @ 21:51 UTC
Wind
  • 150° at 6 KTS
Visibility
10 SM
Flight Rules
VFR
Cloud Levels
  • Clear skies
Temperature
11°C / 52°F
Dewpoint
C / 36°F
Humidity
54%
Altimeter
30.09" Hg
Pressure
1018.92 hPa
Previous

1 hour ago

KTEB 212051Z 20005KT 10SM CLR 12/01 A3009 RMK AO2 SLP188 T01170006 57013
Observed
Nov-21 @ 20:51 UTC
Wind
  • 200° at 5 KTS
Visibility
10 SM
Flight Rules
VFR
Cloud Levels
  • Clear skies
Temperature
12°C / 54°F
Dewpoint
C / 34°F
Humidity
47%
Altimeter
30.09" Hg
Pressure
1018.92 hPa
Previous

2 hours ago

KTEB 211951Z 21006KT 10SM CLR 12/01 A3010 RMK AO2 SLP192 T01220006
Observed
Nov-21 @ 19:51 UTC
Wind
  • 210° at 6 KTS
Visibility
10 SM
Flight Rules
VFR
Cloud Levels
  • Clear skies
Temperature
12°C / 54°F
Dewpoint
C / 34°F
Humidity
47%
Altimeter
30.1" Hg
Pressure
1019.32 hPa